sensor_id;sensor_type;location;lat;lon;timestamp;P1;durP1;ratioP1;P2;durP2;ratioP2
69434;SDS011;56625;54.322;18.582;2024-01-30T00:00:03;41.50;;;17.50;;
69434;SDS011;56625;54.322;18.582;2024-01-30T00:02:33;42.50;;;17.40;;
69434;SDS011;56625;54.322;18.582;2024-01-30T00:05:02;41.20;;;17.10;;
69434;SDS011;56625;54.322;18.582;2024-01-30T00:07:31;38.80;;;16.80;;
69434;SDS011;56625;54.322;18.582;2024-01-30T00:10:00;43.70;;;17.40;;
69434;SDS011;56625;54.322;18.582;2024-01-30T00:12:29;45.20;;;17.90;;
69434;SDS011;56625;54.322;18.582;2024-01-30T00:14:57;41.00;;;16.40;;
69434;SDS011;56625;54.322;18.582;2024-01-30T00:17:26;37.60;;;16.00;;
69434;SDS011;56625;54.322;18.582;2024-01-30T00:19:54;36.10;;;14.80;;
69434;SDS011;56625;54.322;18.582;2024-01-30T00:22:23;40.60;;;16.20;;
69434;SDS011;56625;54.322;18.582;2024-01-30T00:24:51;39.20;;;16.20;;
69434;SDS011;56625;54.322;18.582;2024-01-30T00:27:20;31.70;;;13.80;;
69434;SDS011;56625;54.322;18.582;2024-01-30T00:29:49;32.80;;;14.60;;
69434;SDS011;56625;54.322;18.582;2024-01-30T00:32:17;38.00;;;15.60;;
69434;SDS011;56625;54.322;18.582;2024-01-30T00:34:49;36.20;;;14.40;;
69434;SDS011;56625;54.322;18.582;2024-01-30T00:37:18;34.00;;;14.10;;
69434;SDS011;56625;54.322;18.582;2024-01-30T00:39:46;38.50;;;14.50;;
69434;SDS011;56625;54.322;18.582;2024-01-30T00:42:15;32.80;;;14.60;;
69434;SDS011;56625;54.322;18.582;2024-01-30T00:44:43;36.90;;;14.80;;
69434;SDS011;56625;54.322;18.582;2024-01-30T00:47:11;31.70;;;13.60;;
69434;SDS011;56625;54.322;18.582;2024-01-30T00:49:39;35.90;;;14.30;;
69434;SDS011;56625;54.322;18.582;2024-01-30T00:52:08;30.10;;;12.20;;
69434;SDS011;56625;54.322;18.582;2024-01-30T00:54:36;33.10;;;13.10;;
69434;SDS011;56625;54.322;18.582;2024-01-30T00:57:05;32.60;;;13.40;;
69434;SDS011;56625;54.322;18.582;2024-01-30T00:59:33;31.80;;;13.20;;
69434;SDS011;56625;54.322;18.582;2024-01-30T01:02:01;28.90;;;12.30;;
69434;SDS011;56625;54.322;18.582;2024-01-30T01:04:32;31.40;;;13.70;;
69434;SDS011;56625;54.322;18.582;2024-01-30T01:07:01;31.80;;;13.00;;
69434;SDS011;56625;54.322;18.582;2024-01-30T01:09:29;30.20;;;13.10;;
69434;SDS011;56625;54.322;18.582;2024-01-30T01:11:57;31.30;;;13.10;;
69434;SDS011;56625;54.322;18.582;2024-01-30T01:14:25;31.90;;;13.00;;
69434;SDS011;56625;54.322;18.582;2024-01-30T01:16:54;33.80;;;13.70;;
69434;SDS011;56625;54.322;18.582;2024-01-30T01:19:22;33.50;;;14.20;;
69434;SDS011;56625;54.322;18.582;2024-01-30T01:21:51;30.60;;;12.50;;
69434;SDS011;56625;54.322;18.582;2024-01-30T01:24:19;31.80;;;13.60;;
69434;SDS011;56625;54.322;18.582;2024-01-30T01:26:47;30.30;;;13.00;;
69434;SDS011;56625;54.322;18.582;2024-01-30T01:29:16;31.70;;;12.60;;
69434;SDS011;56625;54.322;18.582;2024-01-30T01:31:44;19.30;;;8.80;;
69434;SDS011;56625;54.322;18.582;2024-01-30T01:34:13;31.40;;;10.50;;
69434;SDS011;56625;54.322;18.582;2024-01-30T01:36:42;32.30;;;11.70;;
69434;SDS011;56625;54.322;18.582;2024-01-30T01:39:10;25.80;;;11.10;;
69434;SDS011;56625;54.322;18.582;2024-01-30T01:41:39;33.30;;;13.80;;
69434;SDS011;56625;54.322;18.582;2024-01-30T01:44:08;36.30;;;15.70;;
69434;SDS011;56625;54.322;18.582;2024-01-30T01:46:36;37.50;;;15.90;;
69434;SDS011;56625;54.322;18.582;2024-01-30T01:49:05;38.40;;;16.30;;
69434;SDS011;56625;54.322;18.582;2024-01-30T01:51:36;41.00;;;17.10;;
69434;SDS011;56625;54.322;18.582;2024-01-30T01:54:05;43.90;;;18.30;;
69434;SDS011;56625;54.322;18.582;2024-01-30T01:56:33;38.50;;;16.20;;
69434;SDS011;56625;54.322;18.582;2024-01-30T01:59:07;46.20;;;18.00;;
69434;SDS011;56625;54.322;18.582;2024-01-30T02:01:36;45.60;;;17.30;;
69434;SDS011;56625;54.322;18.582;2024-01-30T02:04:05;40.40;;;17.30;;
69434;SDS011;56625;54.322;18.582;2024-01-30T02:06:34;46.40;;;18.10;;
69434;SDS011;56625;54.322;18.582;2024-01-30T02:09:05;41.80;;;18.10;;
69434;SDS011;56625;54.322;18.582;2024-01-30T02:11:33;41.70;;;17.40;;
69434;SDS011;56625;54.322;18.582;2024-01-30T02:14:03;42.00;;;17.20;;
69434;SDS011;56625;54.322;18.582;2024-01-30T02:16:32;41.90;;;17.30;;
69434;SDS011;56625;54.322;18.582;2024-01-30T02:19:00;45.80;;;18.20;;
69434;SDS011;56625;54.322;18.582;2024-01-30T02:21:29;43.70;;;17.70;;
69434;SDS011;56625;54.322;18.582;2024-01-30T02:23:58;43.00;;;17.90;;
69434;SDS011;56625;54.322;18.582;2024-01-30T02:26:27;44.90;;;16.80;;
69434;SDS011;56625;54.322;18.582;2024-01-30T02:28:55;43.20;;;17.40;;
69434;SDS011;56625;54.322;18.582;2024-01-30T02:31:25;41.70;;;18.10;;
69434;SDS011;56625;54.322;18.582;2024-01-30T02:33:54;41.10;;;17.10;;
69434;SDS011;56625;54.322;18.582;2024-01-30T02:36:22;42.80;;;18.30;;
69434;SDS011;56625;54.322;18.582;2024-01-30T02:38:50;40.70;;;18.60;;
69434;SDS011;56625;54.322;18.582;2024-01-30T02:41:18;45.90;;;19.00;;
69434;SDS011;56625;54.322;18.582;2024-01-30T02:43:47;41.20;;;16.60;;
69434;SDS011;56625;54.322;18.582;2024-01-30T02:46:15;37.80;;;16.00;;
69434;SDS011;56625;54.322;18.582;2024-01-30T02:48:47;36.70;;;16.80;;
69434;SDS011;56625;54.322;18.582;2024-01-30T02:51:15;41.50;;;17.10;;
69434;SDS011;56625;54.322;18.582;2024-01-30T02:53:44;43.50;;;17.20;;
69434;SDS011;56625;54.322;18.582;2024-01-30T02:56:13;39.70;;;16.60;;
69434;SDS011;56625;54.322;18.582;2024-01-30T02:58:42;40.20;;;17.50;;
69434;SDS011;56625;54.322;18.582;2024-01-30T03:01:11;41.10;;;17.70;;
69434;SDS011;56625;54.322;18.582;2024-01-30T03:03:40;40.10;;;17.30;;
69434;SDS011;56625;54.322;18.582;2024-01-30T03:06:09;45.60;;;17.70;;
69434;SDS011;56625;54.322;18.582;2024-01-30T03:08:37;45.90;;;19.40;;
69434;SDS011;56625;54.322;18.582;2024-01-30T03:11:05;46.50;;;18.00;;
69434;SDS011;56625;54.322;18.582;2024-01-30T03:13:34;40.90;;;16.90;;
69434;SDS011;56625;54.322;18.582;2024-01-30T03:16:02;38.90;;;17.60;;
69434;SDS011;56625;54.322;18.582;2024-01-30T03:18:31;39.40;;;16.20;;
69434;SDS011;56625;54.322;18.582;2024-01-30T03:20:59;41.90;;;17.40;;
69434;SDS011;56625;54.322;18.582;2024-01-30T03:23:27;41.80;;;18.30;;
69434;SDS011;56625;54.322;18.582;2024-01-30T03:25:56;42.10;;;17.00;;
69434;SDS011;56625;54.322;18.582;2024-01-30T03:28:24;47.10;;;18.80;;
69434;SDS011;56625;54.322;18.582;2024-01-30T03:30:52;46.90;;;19.30;;
69434;SDS011;56625;54.322;18.582;2024-01-30T03:33:20;47.80;;;19.10;;
69434;SDS011;56625;54.322;18.582;2024-01-30T03:35:49;37.10;;;16.30;;
69434;SDS011;56625;54.322;18.582;2024-01-30T03:38:17;43.80;;;19.30;;
69434;SDS011;56625;54.322;18.582;2024-01-30T03:40:45;40.00;;;17.40;;
69434;SDS011;56625;54.322;18.582;2024-01-30T03:43:13;46.00;;;18.60;;
69434;SDS011;56625;54.322;18.582;2024-01-30T03:45:42;42.20;;;18.10;;
69434;SDS011;56625;54.322;18.582;2024-01-30T03:48:10;40.50;;;18.10;;
69434;SDS011;56625;54.322;18.582;2024-01-30T03:50:38;44.00;;;18.10;;
69434;SDS011;56625;54.322;18.582;2024-01-30T03:53:07;39.90;;;17.20;;
69434;SDS011;56625;54.322;18.582;2024-01-30T03:55:35;46.80;;;18.90;;
69434;SDS011;56625;54.322;18.582;2024-01-30T03:58:03;44.30;;;18.10;;
69434;SDS011;56625;54.322;18.582;2024-01-30T04:00:32;40.50;;;17.00;;
69434;SDS011;56625;54.322;18.582;2024-01-30T04:03:00;45.50;;;18.50;;
69434;SDS011;56625;54.322;18.582;2024-01-30T04:05:28;40.30;;;17.90;;
69434;SDS011;56625;54.322;18.582;2024-01-30T04:07:57;40.90;;;16.40;;
69434;SDS011;56625;54.322;18.582;2024-01-30T04:10:25;42.50;;;17.90;;
69434;SDS011;56625;54.322;18.582;2024-01-30T04:12:54;43.70;;;17.40;;
69434;SDS011;56625;54.322;18.582;2024-01-30T04:15:23;43.50;;;17.30;;
69434;SDS011;56625;54.322;18.582;2024-01-30T04:17:51;42.70;;;17.30;;
69434;SDS011;56625;54.322;18.582;2024-01-30T04:20:20;41.60;;;17.00;;
69434;SDS011;56625;54.322;18.582;2024-01-30T04:22:49;44.70;;;18.80;;
69434;SDS011;56625;54.322;18.582;2024-01-30T04:25:17;41.60;;;16.90;;
69434;SDS011;56625;54.322;18.582;2024-01-30T04:27:46;47.10;;;19.00;;
69434;SDS011;56625;54.322;18.582;2024-01-30T04:30:14;43.60;;;18.50;;
69434;SDS011;56625;54.322;18.582;2024-01-30T04:32:46;43.50;;;17.40;;
69434;SDS011;56625;54.322;18.582;2024-01-30T04:35:14;44.70;;;18.20;;
69434;SDS011;56625;54.322;18.582;2024-01-30T04:37:44;43.80;;;18.60;;
69434;SDS011;56625;54.322;18.582;2024-01-30T04:40:12;43.10;;;17.80;;
69434;SDS011;56625;54.322;18.582;2024-01-30T04:42:40;44.40;;;18.60;;
69434;SDS011;56625;54.322;18.582;2024-01-30T04:45:09;45.30;;;18.00;;
69434;SDS011;56625;54.322;18.582;2024-01-30T04:47:37;42.40;;;17.40;;
69434;SDS011;56625;54.322;18.582;2024-01-30T04:50:07;37.40;;;16.50;;
69434;SDS011;56625;54.322;18.582;2024-01-30T04:52:36;41.10;;;17.80;;
69434;SDS011;56625;54.322;18.582;2024-01-30T04:55:05;43.50;;;17.60;;
69434;SDS011;56625;54.322;18.582;2024-01-30T04:57:34;43.40;;;18.50;;
69434;SDS011;56625;54.322;18.582;2024-01-30T05:00:02;39.30;;;18.00;;
69434;SDS011;56625;54.322;18.582;2024-01-30T05:02:31;45.20;;;17.30;;
69434;SDS011;56625;54.322;18.582;2024-01-30T05:04:59;38.80;;;17.20;;
69434;SDS011;56625;54.322;18.582;2024-01-30T05:07:27;44.30;;;17.60;;
69434;SDS011;56625;54.322;18.582;2024-01-30T05:09:56;44.80;;;18.70;;
69434;SDS011;56625;54.322;18.582;2024-01-30T05:12:26;44.50;;;18.30;;
69434;SDS011;56625;54.322;18.582;2024-01-30T05:14:55;43.10;;;17.10;;
69434;SDS011;56625;54.322;18.582;2024-01-30T05:17:23;44.20;;;18.40;;
69434;SDS011;56625;54.322;18.582;2024-01-30T05:19:51;42.60;;;16.60;;
69434;SDS011;56625;54.322;18.582;2024-01-30T05:22:20;42.40;;;18.50;;
69434;SDS011;56625;54.322;18.582;2024-01-30T05:24:49;42.70;;;17.80;;
69434;SDS011;56625;54.322;18.582;2024-01-30T05:27:17;41.30;;;18.30;;
69434;SDS011;56625;54.322;18.582;2024-01-30T05:29:45;45.50;;;19.10;;
69434;SDS011;56625;54.322;18.582;2024-01-30T05:32:13;43.50;;;18.60;;
69434;SDS011;56625;54.322;18.582;2024-01-30T05:34:41;44.50;;;19.50;;
69434;SDS011;56625;54.322;18.582;2024-01-30T05:37:09;50.00;;;20.60;;
69434;SDS011;56625;54.322;18.582;2024-01-30T05:39:41;46.40;;;19.00;;
69434;SDS011;56625;54.322;18.582;2024-01-30T05:42:09;45.80;;;19.10;;
69434;SDS011;56625;54.322;18.582;2024-01-30T05:44:37;42.40;;;17.90;;
69434;SDS011;56625;54.322;18.582;2024-01-30T05:47:06;47.40;;;19.40;;
69434;SDS011;56625;54.322;18.582;2024-01-30T05:49:34;44.00;;;18.00;;
69434;SDS011;56625;54.322;18.582;2024-01-30T05:52:03;45.30;;;18.10;;
69434;SDS011;56625;54.322;18.582;2024-01-30T05:54:32;46.50;;;17.90;;
69434;SDS011;56625;54.322;18.582;2024-01-30T05:57:00;44.00;;;17.40;;
69434;SDS011;56625;54.322;18.582;2024-01-30T05:59:28;44.20;;;18.80;;
69434;SDS011;56625;54.322;18.582;2024-01-30T06:01:56;44.40;;;19.30;;
69434;SDS011;56625;54.322;18.582;2024-01-30T06:04:25;45.60;;;18.10;;
69434;SDS011;56625;54.322;18.582;2024-01-30T06:06:53;44.40;;;19.50;;
69434;SDS011;56625;54.322;18.582;2024-01-30T06:09:21;47.00;;;19.70;;
69434;SDS011;56625;54.322;18.582;2024-01-30T06:11:49;44.90;;;19.10;;
69434;SDS011;56625;54.322;18.582;2024-01-30T06:14:17;46.10;;;20.30;;
69434;SDS011;56625;54.322;18.582;2024-01-30T06:16:45;44.70;;;18.80;;
69434;SDS011;56625;54.322;18.582;2024-01-30T06:19:13;46.70;;;17.90;;
69434;SDS011;56625;54.322;18.582;2024-01-30T06:21:41;42.60;;;18.60;;
69434;SDS011;56625;54.322;18.582;2024-01-30T06:24:10;41.90;;;18.80;;
69434;SDS011;56625;54.322;18.582;2024-01-30T06:26:38;42.90;;;19.00;;
69434;SDS011;56625;54.322;18.582;2024-01-30T06:29:06;43.30;;;19.70;;
69434;SDS011;56625;54.322;18.582;2024-01-30T06:31:41;44.00;;;19.00;;
69434;SDS011;56625;54.322;18.582;2024-01-30T06:34:10;45.90;;;19.90;;
69434;SDS011;56625;54.322;18.582;2024-01-30T06:36:40;45.40;;;19.10;;
69434;SDS011;56625;54.322;18.582;2024-01-30T06:39:08;41.00;;;19.80;;
69434;SDS011;56625;54.322;18.582;2024-01-30T06:41:36;40.90;;;18.30;;
69434;SDS011;56625;54.322;18.582;2024-01-30T06:44:04;43.00;;;19.00;;
69434;SDS011;56625;54.322;18.582;2024-01-30T06:46:35;43.30;;;18.80;;
69434;SDS011;56625;54.322;18.582;2024-01-30T06:49:06;43.70;;;18.80;;
69434;SDS011;56625;54.322;18.582;2024-01-30T06:51:34;49.10;;;19.90;;
69434;SDS011;56625;54.322;18.582;2024-01-30T06:54:03;49.70;;;20.70;;
69434;SDS011;56625;54.322;18.582;2024-01-30T06:56:31;43.50;;;19.20;;
69434;SDS011;56625;54.322;18.582;2024-01-30T06:58:59;47.80;;;19.50;;
69434;SDS011;56625;54.322;18.582;2024-01-30T07:01:28;44.40;;;20.10;;
69434;SDS011;56625;54.322;18.582;2024-01-30T07:03:57;46.50;;;20.10;;
69434;SDS011;56625;54.322;18.582;2024-01-30T07:06:26;44.10;;;18.30;;
69434;SDS011;56625;54.322;18.582;2024-01-30T07:08:54;43.50;;;17.40;;
69434;SDS011;56625;54.322;18.582;2024-01-30T07:11:22;36.90;;;17.80;;
69434;SDS011;56625;54.322;18.582;2024-01-30T07:13:51;43.20;;;18.20;;
69434;SDS011;56625;54.322;18.582;2024-01-30T07:16:20;42.90;;;18.50;;
69434;SDS011;56625;54.322;18.582;2024-01-30T07:18:48;42.10;;;18.20;;
69434;SDS011;56625;54.322;18.582;2024-01-30T07:21:17;44.00;;;19.10;;
69434;SDS011;56625;54.322;18.582;2024-01-30T07:23:45;43.60;;;18.10;;
69434;SDS011;56625;54.322;18.582;2024-01-30T07:26:13;42.40;;;17.80;;
69434;SDS011;56625;54.322;18.582;2024-01-30T07:28:41;46.20;;;19.40;;
69434;SDS011;56625;54.322;18.582;2024-01-30T07:31:13;45.10;;;18.00;;
69434;SDS011;56625;54.322;18.582;2024-01-30T07:33:42;41.80;;;18.40;;
69434;SDS011;56625;54.322;18.582;2024-01-30T07:36:10;43.00;;;17.20;;
69434;SDS011;56625;54.322;18.582;2024-01-30T07:38:38;42.90;;;18.60;;
69434;SDS011;56625;54.322;18.582;2024-01-30T07:41:06;40.20;;;17.90;;
69434;SDS011;56625;54.322;18.582;2024-01-30T07:43:35;37.50;;;17.20;;
69434;SDS011;56625;54.322;18.582;2024-01-30T07:46:10;44.20;;;18.80;;
69434;SDS011;56625;54.322;18.582;2024-01-30T07:48:38;38.70;;;17.30;;
69434;SDS011;56625;54.322;18.582;2024-01-30T07:51:07;45.30;;;18.50;;
69434;SDS011;56625;54.322;18.582;2024-01-30T07:53:35;41.10;;;17.30;;
69434;SDS011;56625;54.322;18.582;2024-01-30T07:56:04;41.20;;;17.10;;
69434;SDS011;56625;54.322;18.582;2024-01-30T07:58:34;45.40;;;19.60;;
69434;SDS011;56625;54.322;18.582;2024-01-30T08:01:02;44.90;;;18.30;;
69434;SDS011;56625;54.322;18.582;2024-01-30T08:03:31;40.30;;;17.10;;
69434;SDS011;56625;54.322;18.582;2024-01-30T08:05:59;42.80;;;16.50;;
69434;SDS011;56625;54.322;18.582;2024-01-30T08:08:27;37.80;;;16.80;;
69434;SDS011;56625;54.322;18.582;2024-01-30T08:10:56;38.30;;;16.40;;
69434;SDS011;56625;54.322;18.582;2024-01-30T08:13:24;33.00;;;14.30;;
69434;SDS011;56625;54.322;18.582;2024-01-30T08:15:52;29.60;;;12.20;;
69434;SDS011;56625;54.322;18.582;2024-01-30T08:18:20;30.10;;;13.10;;
69434;SDS011;56625;54.322;18.582;2024-01-30T08:20:48;33.40;;;14.00;;
69434;SDS011;56625;54.322;18.582;2024-01-30T08:23:17;33.50;;;13.90;;
69434;SDS011;56625;54.322;18.582;2024-01-30T08:25:46;33.50;;;13.50;;
69434;SDS011;56625;54.322;18.582;2024-01-30T08:28:15;33.40;;;14.30;;
69434;SDS011;56625;54.322;18.582;2024-01-30T08:30:46;37.80;;;15.90;;
69434;SDS011;56625;54.322;18.582;2024-01-30T08:33:15;52.60;;;18.10;;
69434;SDS011;56625;54.322;18.582;2024-01-30T08:35:43;52.00;;;22.40;;
69434;SDS011;56625;54.322;18.582;2024-01-30T08:38:12;49.70;;;21.70;;
69434;SDS011;56625;54.322;18.582;2024-01-30T08:40:41;49.00;;;22.20;;
69434;SDS011;56625;54.322;18.582;2024-01-30T08:43:12;46.00;;;22.40;;
69434;SDS011;56625;54.322;18.582;2024-01-30T08:45:42;43.00;;;21.30;;
69434;SDS011;56625;54.322;18.582;2024-01-30T08:48:12;51.80;;;22.60;;
69434;SDS011;56625;54.322;18.582;2024-01-30T08:50:41;51.50;;;21.90;;
69434;SDS011;56625;54.322;18.582;2024-01-30T08:53:14;46.10;;;20.20;;
69434;SDS011;56625;54.322;18.582;2024-01-30T08:55:45;52.50;;;21.40;;
69434;SDS011;56625;54.322;18.582;2024-01-30T08:58:16;52.80;;;21.50;;
69434;SDS011;56625;54.322;18.582;2024-01-30T09:00:50;57.20;;;22.50;;
69434;SDS011;56625;54.322;18.582;2024-01-30T09:03:20;51.10;;;19.90;;
69434;SDS011;56625;54.322;18.582;2024-01-30T09:05:48;42.90;;;18.00;;
69434;SDS011;56625;54.322;18.582;2024-01-30T09:08:16;42.10;;;18.70;;
69434;SDS011;56625;54.322;18.582;2024-01-30T09:10:45;42.50;;;18.10;;
69434;SDS011;56625;54.322;18.582;2024-01-30T09:13:13;45.40;;;18.00;;
69434;SDS011;56625;54.322;18.582;2024-01-30T09:15:42;39.00;;;18.10;;
69434;SDS011;56625;54.322;18.582;2024-01-30T09:18:10;39.50;;;17.50;;
69434;SDS011;56625;54.322;18.582;2024-01-30T09:20:40;38.20;;;16.70;;
69434;SDS011;56625;54.322;18.582;2024-01-30T09:23:09;37.80;;;17.50;;
69434;SDS011;56625;54.322;18.582;2024-01-30T09:25:39;39.20;;;16.90;;
69434;SDS011;56625;54.322;18.582;2024-01-30T09:28:10;39.40;;;17.20;;
69434;SDS011;56625;54.322;18.582;2024-01-30T09:30:39;37.60;;;17.00;;
69434;SDS011;56625;54.322;18.582;2024-01-30T09:33:10;41.20;;;17.60;;
69434;SDS011;56625;54.322;18.582;2024-01-30T09:35:39;38.80;;;17.40;;
69434;SDS011;56625;54.322;18.582;2024-01-30T09:38:12;43.10;;;18.90;;
69434;SDS011;56625;54.322;18.582;2024-01-30T09:40:44;39.90;;;19.20;;
69434;SDS011;56625;54.322;18.582;2024-01-30T09:43:25;40.50;;;18.50;;
69434;SDS011;56625;54.322;18.582;2024-01-30T09:46:02;44.20;;;19.30;;
69434;SDS011;56625;54.322;18.582;2024-01-30T09:48:37;46.10;;;19.80;;
69434;SDS011;56625;54.322;18.582;2024-01-30T09:51:09;43.10;;;19.90;;
69434;SDS011;56625;54.322;18.582;2024-01-30T09:53:40;45.30;;;19.60;;
69434;SDS011;56625;54.322;18.582;2024-01-30T09:56:15;46.90;;;21.70;;
69434;SDS011;56625;54.322;18.582;2024-01-30T09:58:48;49.70;;;22.20;;
69434;SDS011;56625;54.322;18.582;2024-01-30T10:01:19;49.60;;;22.00;;
69434;SDS011;56625;54.322;18.582;2024-01-30T10:03:51;45.30;;;20.70;;
69434;SDS011;56625;54.322;18.582;2024-01-30T10:06:25;48.10;;;22.90;;
69434;SDS011;56625;54.322;18.582;2024-01-30T10:08:58;53.00;;;23.10;;
69434;SDS011;56625;54.322;18.582;2024-01-30T10:11:27;43.40;;;21.30;;
69434;SDS011;56625;54.322;18.582;2024-01-30T10:13:58;48.20;;;22.40;;
69434;SDS011;56625;54.322;18.582;2024-01-30T10:16:28;49.40;;;23.10;;
69434;SDS011;56625;54.322;18.582;2024-01-30T10:18:59;52.00;;;22.90;;
69434;SDS011;56625;54.322;18.582;2024-01-30T10:21:31;47.20;;;21.90;;
69434;SDS011;56625;54.322;18.582;2024-01-30T10:24:02;53.20;;;22.90;;
69434;SDS011;56625;54.322;18.582;2024-01-30T10:26:32;45.80;;;20.90;;
69434;SDS011;56625;54.322;18.582;2024-01-30T10:29:02;40.60;;;19.00;;
69434;SDS011;56625;54.322;18.582;2024-01-30T10:31:34;43.80;;;20.30;;
69434;SDS011;56625;54.322;18.582;2024-01-30T10:34:06;41.00;;;18.70;;
69434;SDS011;56625;54.322;18.582;2024-01-30T10:37:09;41.00;;;19.40;;
69434;SDS011;56625;54.322;18.582;2024-01-30T10:39:45;40.60;;;18.90;;
69434;SDS011;56625;54.322;18.582;2024-01-30T10:42:18;41.90;;;19.40;;
69434;SDS011;56625;54.322;18.582;2024-01-30T10:45:09;39.50;;;18.90;;
69434;SDS011;56625;54.322;18.582;2024-01-30T10:47:54;40.40;;;18.30;;
69434;SDS011;56625;54.322;18.582;2024-01-30T10:50:26;41.00;;;17.90;;
69434;SDS011;56625;54.322;18.582;2024-01-30T10:52:57;40.30;;;19.00;;
69434;SDS011;56625;54.322;18.582;2024-01-30T10:55:32;36.70;;;16.80;;
69434;SDS011;56625;54.322;18.582;2024-01-30T10:58:03;37.00;;;17.40;;
69434;SDS011;56625;54.322;18.582;2024-01-30T11:00:37;35.10;;;16.60;;
69434;SDS011;56625;54.322;18.582;2024-01-30T11:03:10;35.40;;;16.70;;
69434;SDS011;56625;54.322;18.582;2024-01-30T11:05:43;36.60;;;16.10;;
69434;SDS011;56625;54.322;18.582;2024-01-30T11:08:23;35.40;;;16.10;;
69434;SDS011;56625;54.322;18.582;2024-01-30T11:10:58;35.60;;;15.70;;
69434;SDS011;56625;54.322;18.582;2024-01-30T11:13:30;41.70;;;16.00;;
69434;SDS011;56625;54.322;18.582;2024-01-30T11:16:05;36.00;;;16.00;;
69434;SDS011;56625;54.322;18.582;2024-01-30T11:18:36;32.10;;;14.80;;
69434;SDS011;56625;54.322;18.582;2024-01-30T11:21:08;36.40;;;15.60;;
69434;SDS011;56625;54.322;18.582;2024-01-30T11:23:38;30.50;;;13.90;;
69434;SDS011;56625;54.322;18.582;2024-01-30T11:26:10;31.40;;;13.70;;
69434;SDS011;56625;54.322;18.582;2024-01-30T11:28:38;28.60;;;13.90;;
69434;SDS011;56625;54.322;18.582;2024-01-30T11:31:07;27.90;;;13.90;;
69434;SDS011;56625;54.322;18.582;2024-01-30T11:33:36;28.30;;;13.30;;
69434;SDS011;56625;54.322;18.582;2024-01-30T11:36:04;27.60;;;12.90;;
69434;SDS011;56625;54.322;18.582;2024-01-30T11:38:35;29.90;;;13.00;;
69434;SDS011;56625;54.322;18.582;2024-01-30T11:41:04;30.30;;;13.40;;
69434;SDS011;56625;54.322;18.582;2024-01-30T11:43:32;27.10;;;13.90;;
69434;SDS011;56625;54.322;18.582;2024-01-30T11:46:01;29.30;;;13.70;;
69434;SDS011;56625;54.322;18.582;2024-01-30T11:48:30;32.00;;;14.00;;
69434;SDS011;56625;54.322;18.582;2024-01-30T11:50:58;28.40;;;13.10;;
69434;SDS011;56625;54.322;18.582;2024-01-30T11:53:27;28.20;;;13.00;;
69434;SDS011;56625;54.322;18.582;2024-01-30T11:55:55;31.10;;;13.90;;
69434;SDS011;56625;54.322;18.582;2024-01-30T11:58:25;29.70;;;14.10;;
69434;SDS011;56625;54.322;18.582;2024-01-30T12:00:56;29.80;;;12.50;;
69434;SDS011;56625;54.322;18.582;2024-01-30T12:03:25;29.70;;;13.20;;
69434;SDS011;56625;54.322;18.582;2024-01-30T12:05:57;29.60;;;13.90;;
69434;SDS011;56625;54.322;18.582;2024-01-30T12:08:27;28.90;;;13.40;;
69434;SDS011;56625;54.322;18.582;2024-01-30T12:10:58;28.60;;;13.70;;
69434;SDS011;56625;54.322;18.582;2024-01-30T12:13:28;27.50;;;12.10;;
69434;SDS011;56625;54.322;18.582;2024-01-30T12:16:00;27.70;;;12.20;;
69434;SDS011;56625;54.322;18.582;2024-01-30T12:18:31;25.20;;;11.10;;
69434;SDS011;56625;54.322;18.582;2024-01-30T12:21:02;24.30;;;12.00;;
69434;SDS011;56625;54.322;18.582;2024-01-30T12:23:30;27.80;;;12.10;;
69434;SDS011;56625;54.322;18.582;2024-01-30T12:25:59;26.50;;;12.00;;
69434;SDS011;56625;54.322;18.582;2024-01-30T12:28:27;25.10;;;11.80;;
69434;SDS011;56625;54.322;18.582;2024-01-30T12:30:56;24.50;;;11.70;;
69434;SDS011;56625;54.322;18.582;2024-01-30T12:33:29;24.50;;;11.70;;
69434;SDS011;56625;54.322;18.582;2024-01-30T12:36:01;25.40;;;12.20;;
69434;SDS011;56625;54.322;18.582;2024-01-30T12:38:31;25.20;;;12.80;;
69434;SDS011;56625;54.322;18.582;2024-01-30T12:40:59;27.30;;;12.00;;
69434;SDS011;56625;54.322;18.582;2024-01-30T12:43:29;28.40;;;11.80;;
69434;SDS011;56625;54.322;18.582;2024-01-30T12:46:05;25.80;;;10.90;;
69434;SDS011;56625;54.322;18.582;2024-01-30T12:48:34;26.20;;;12.10;;
69434;SDS011;56625;54.322;18.582;2024-01-30T12:51:02;23.10;;;10.70;;
69434;SDS011;56625;54.322;18.582;2024-01-30T12:53:32;23.10;;;10.20;;
69434;SDS011;56625;54.322;18.582;2024-01-30T12:56:00;21.40;;;10.00;;
69434;SDS011;56625;54.322;18.582;2024-01-30T12:58:28;22.20;;;9.90;;
69434;SDS011;56625;54.322;18.582;2024-01-30T13:00:56;21.50;;;10.50;;
69434;SDS011;56625;54.322;18.582;2024-01-30T13:03:25;24.60;;;10.60;;
69434;SDS011;56625;54.322;18.582;2024-01-30T13:05:54;22.30;;;10.00;;
69434;SDS011;56625;54.322;18.582;2024-01-30T13:08:23;22.10;;;9.60;;
69434;SDS011;56625;54.322;18.582;2024-01-30T13:10:52;19.30;;;9.60;;
69434;SDS011;56625;54.322;18.582;2024-01-30T13:13:22;19.60;;;8.90;;
69434;SDS011;56625;54.322;18.582;2024-01-30T13:15:50;21.20;;;9.00;;
69434;SDS011;56625;54.322;18.582;2024-01-30T13:18:18;20.90;;;9.20;;
69434;SDS011;56625;54.322;18.582;2024-01-30T13:20:47;22.00;;;10.20;;
69434;SDS011;56625;54.322;18.582;2024-01-30T13:23:15;17.20;;;8.60;;
69434;SDS011;56625;54.322;18.582;2024-01-30T13:25:43;19.60;;;9.30;;
69434;SDS011;56625;54.322;18.582;2024-01-30T13:28:11;21.00;;;10.00;;
69434;SDS011;56625;54.322;18.582;2024-01-30T13:30:39;19.80;;;9.90;;
69434;SDS011;56625;54.322;18.582;2024-01-30T13:33:07;22.50;;;9.90;;
69434;SDS011;56625;54.322;18.582;2024-01-30T13:35:35;18.80;;;8.30;;
69434;SDS011;56625;54.322;18.582;2024-01-30T13:38:04;21.30;;;9.60;;
69434;SDS011;56625;54.322;18.582;2024-01-30T13:40:32;20.40;;;9.40;;
69434;SDS011;56625;54.322;18.582;2024-01-30T13:43:00;24.60;;;10.70;;
69434;SDS011;56625;54.322;18.582;2024-01-30T13:45:28;21.50;;;10.40;;
69434;SDS011;56625;54.322;18.582;2024-01-30T13:47:56;22.10;;;10.60;;
69434;SDS011;56625;54.322;18.582;2024-01-30T13:50:25;23.80;;;10.00;;
69434;SDS011;56625;54.322;18.582;2024-01-30T13:52:54;22.20;;;10.50;;
69434;SDS011;56625;54.322;18.582;2024-01-30T13:55:25;24.90;;;11.50;;
69434;SDS011;56625;54.322;18.582;2024-01-30T13:57:53;23.90;;;10.80;;
69434;SDS011;56625;54.322;18.582;2024-01-30T14:00:22;23.80;;;10.30;;
69434;SDS011;56625;54.322;18.582;2024-01-30T14:02:53;22.20;;;10.20;;
69434;SDS011;56625;54.322;18.582;2024-01-30T14:05:26;23.80;;;10.10;;
69434;SDS011;56625;54.322;18.582;2024-01-30T14:07:59;19.30;;;9.20;;
69434;SDS011;56625;54.322;18.582;2024-01-30T14:10:27;23.80;;;11.00;;
69434;SDS011;56625;54.322;18.582;2024-01-30T14:12:56;23.40;;;10.40;;
69434;SDS011;56625;54.322;18.582;2024-01-30T14:15:24;26.20;;;10.70;;
69434;SDS011;56625;54.322;18.582;2024-01-30T14:17:56;17.70;;;7.20;;
69434;SDS011;56625;54.322;18.582;2024-01-30T14:20:26;24.20;;;10.80;;